Impacts TAF Board
For situational awareness. Not to be used for flight planning purposes.
IDs:

KHLG - Wheeling/Ohio Cnty, WV, US

Issued at 0520 UTC 07 Dec 2022
Updated at 0647 UTC 07 Dec 2022
Potential Impact None Slight Moderate High
Time<<07/19Z 07/20Z 07/21Z 07/22Z 07/23Z 08/00Z 08/01Z 08/02Z 08/03Z 08/04Z 08/05Z 08/06Z 08/07Z>>
Type PRVL PRVL PRVL PRVL PRVL PRVL PRVL PRVL PRVL PRVL PRVL
VIS 5 5 5 5 5 >6 >6 >6 >6 >6 >6
CIG 6 6 6 6 6 6 6 6 6 6 6
Cover OVC OVC OVC OVC OVC OVC OVC OVC OVC OVC OVC
FltCat IFR IFR IFR IFR IFR IFR IFR IFR IFR IFR IFR
WX BR BR BR BR BR -- -- -- -- -- --
WDir 310 310 310 310 310 340 340 340 340 340 340
WSpd 5 5 5 5 5 3 3 3 3 3 3
WGst -- -- -- -- -- -- -- -- -- -- --
WSHgt -- -- -- -- -- -- -- -- -- -- --
WSDir -- -- -- -- -- -- -- -- -- -- --
WSSpd -- -- -- -- -- -- -- -- -- -- --
Raw TAF
KHLG 070520Z 0706/0806 20003KT 3/4SM -RA BR OVC003
  FM071200 22005KT 1SM -DZ BR OVC003
  FM071900 31005KT 5SM BR OVC006
  FM080000 34003KT P6SM OVC006


METAR Board
Radar Display
Forecast Discussion
For situational awareness. Not to be used for flight planning purposes.